createdAt,value
2022-11-04T00:00:12.135Z,14.18
2022-11-04T00:00:33.966Z,14.48
2022-11-04T00:01:02.470Z,14.30
2022-11-04T00:01:24.602Z,13.75
2022-11-04T00:01:47.905Z,14.25
2022-11-04T00:02:09.755Z,14.55
2022-11-04T00:02:31.603Z,14.32
2022-11-04T00:02:53.431Z,13.95
2022-11-04T00:03:15.575Z,14.43
2022-11-04T00:03:37.295Z,14.15
2022-11-04T00:03:59.342Z,13.93
2022-11-04T00:04:22.529Z,14.02
2022-11-04T00:04:44.624Z,14.07
2022-11-04T00:05:06.811Z,14.38
2022-11-04T00:05:28.960Z,13.80
2022-11-04T00:05:50.753Z,13.90
2022-11-04T00:06:12.571Z,14.55
2022-11-04T00:06:34.744Z,14.48
2022-11-04T00:06:57.412Z,13.95
2022-11-04T00:07:37.929Z,13.68
2022-11-04T00:08:18.357Z,13.82
2022-11-04T00:08:40.124Z,14.35
2022-11-04T00:09:02.349Z,14.18
2022-11-04T00:09:27.379Z,13.98
2022-11-04T00:09:49.517Z,13.35
2022-11-04T00:10:11.480Z,12.73
2022-11-04T00:10:52.121Z,13.48
2022-11-04T00:11:32.479Z,14.18
2022-11-04T00:12:13.518Z,14.05
2022-11-04T00:12:35.689Z,13.30
2022-11-04T00:12:58.197Z,13.65
2022-11-04T00:13:20.305Z,14.40
2022-11-04T00:13:42.631Z,13.75
2022-11-04T00:14:06.029Z,13.30
2022-11-04T00:14:30.232Z,13.55
2022-11-04T00:14:52.376Z,13.10
2022-11-04T00:15:32.981Z,12.95
2022-11-04T00:16:13.494Z,12.90
2022-11-04T00:16:54.048Z,13.40
2022-11-04T00:17:19.389Z,12.98
2022-11-04T00:17:41.211Z,12.88
2022-11-04T00:18:03.016Z,12.50
2022-11-04T00:18:24.915Z,13.48
2022-11-04T00:18:46.697Z,12.75
2022-11-04T00:19:08.601Z,12.90
2022-11-04T00:19:50.598Z,13.27
2022-11-04T00:20:31.330Z,13.05
2022-11-04T00:21:12.122Z,13.00
2022-11-04T00:21:53.029Z,13.43
2022-11-04T00:22:33.265Z,12.77
2022-11-04T00:23:14.189Z,12.32
2022-11-04T00:23:54.617Z,12.80
2022-11-04T00:24:35.133Z,12.80
2022-11-04T00:25:15.342Z,12.50
2022-11-04T00:25:55.465Z,12.55
2022-11-04T00:26:35.776Z,12.68
2022-11-04T00:27:16.815Z,12.57
2022-11-04T00:27:57.744Z,12.63
2022-11-04T00:28:39.187Z,12.52
2022-11-04T00:29:00.924Z,12.63
2022-11-04T00:29:22.682Z,12.23
2022-11-04T00:29:44.818Z,12.35
2022-11-04T00:30:09.510Z,12.13
2022-11-04T00:30:31.761Z,12.75
2022-11-04T00:30:54.768Z,12.32
2022-11-04T00:31:35.546Z,12.05
2022-11-04T00:32:16.563Z,12.20
2022-11-04T00:32:57.647Z,12.00
2022-11-04T00:33:25.923Z,12.13
2022-11-04T00:33:49.050Z,11.95
2022-11-04T00:34:10.863Z,11.57
2022-11-04T00:34:32.562Z,12.13
2022-11-04T00:34:54.552Z,11.90
2022-11-04T00:35:16.715Z,12.35
2022-11-04T00:35:38.473Z,11.73
2022-11-04T00:36:00.611Z,12.25
2022-11-04T00:36:23.923Z,12.38
2022-11-04T00:36:45.683Z,12.00
2022-11-04T00:37:07.554Z,12.55
2022-11-04T00:37:29.326Z,12.55
2022-11-04T00:37:51.118Z,12.25
2022-11-04T00:38:13.006Z,12.57
2022-11-04T00:38:35.142Z,11.90
2022-11-04T00:38:57.355Z,11.93
2022-11-04T00:39:19.268Z,12.70
2022-11-04T00:39:41.003Z,11.90
2022-11-04T00:40:03.113Z,11.68
2022-11-04T00:40:25.209Z,11.27
2022-11-04T00:40:47.434Z,11.40
2022-11-04T00:41:26.393Z,11.25
2022-11-04T00:41:48.630Z,11.45
2022-11-04T00:42:10.397Z,11.80
2022-11-04T00:42:32.832Z,11.30
2022-11-04T00:42:54.942Z,11.13
2022-11-04T00:43:16.748Z,11.57
2022-11-04T00:43:38.840Z,11.73
2022-11-04T00:44:05.105Z,11.45
2022-11-04T00:44:26.915Z,11.25
2022-11-04T00:44:48.627Z,10.70
2022-11-04T00:45:11.652Z,11.27
2022-11-04T00:45:33.791Z,11.35
2022-11-04T00:45:55.890Z,11.63
2022-11-04T00:46:17.594Z,11.68
2022-11-04T00:46:39.338Z,11.23
2022-11-04T00:47:01.455Z,10.68
2022-11-04T00:47:23.633Z,11.10
2022-11-04T00:47:45.548Z,11.13
2022-11-04T00:48:08.197Z,11.68
2022-11-04T00:48:30.175Z,11.18
2022-11-04T00:48:51.942Z,10.65
2022-11-04T00:49:14.084Z,10.98
2022-11-04T00:49:35.816Z,11.02
2022-11-04T00:49:57.952Z,11.10
2022-11-04T00:50:20.166Z,11.45
2022-11-04T00:50:42.614Z,11.25
2022-11-04T00:51:04.517Z,11.10
2022-11-04T00:51:26.911Z,11.25
2022-11-04T00:51:48.669Z,10.70
2022-11-04T00:52:10.461Z,10.88
2022-11-04T00:52:32.586Z,11.02
2022-11-04T00:53:01.362Z,11.57
2022-11-04T00:53:23.484Z,11.10
2022-11-04T00:53:45.428Z,11.30
2022-11-04T00:54:07.267Z,11.45
2022-11-04T00:54:29.254Z,11.50
2022-11-04T00:54:51.486Z,10.82
2022-11-04T00:55:13.593Z,11.40
2022-11-04T00:55:35.505Z,11.02
2022-11-04T00:55:59.954Z,11.05
2022-11-04T00:56:21.969Z,10.35
2022-11-04T00:56:43.697Z,10.88
2022-11-04T00:57:06.161Z,11.02
2022-11-04T00:57:28.290Z,10.75
2022-11-04T00:57:50.091Z,10.98
2022-11-04T00:58:11.836Z,11.50
2022-11-04T00:58:33.698Z,11.10
2022-11-04T00:58:55.856Z,11.35
2022-11-04T00:59:18.044Z,11.38
2022-11-04T00:59:40.527Z,11.05
2022-11-04T01:00:02.234Z,11.63
2022-11-04T01:00:24.420Z,11.27
2022-11-04T01:00:46.690Z,11.52
2022-11-04T01:01:09.917Z,11.43
2022-11-04T01:01:31.984Z,11.70
2022-11-04T01:01:53.963Z,11.52
2022-11-04T01:02:15.888Z,11.13
2022-11-04T01:02:37.947Z,11.20
2022-11-04T01:03:00.942Z,11.57
2022-11-04T01:03:22.683Z,10.70
2022-11-04T01:03:45.871Z,11.25
2022-11-04T01:04:08.115Z,10.90
2022-11-04T01:04:30.317Z,10.63
2022-11-04T01:04:52.508Z,11.15
2022-11-04T01:05:14.418Z,10.85
2022-11-04T01:05:37.808Z,10.70
2022-11-04T01:05:59.617Z,10.82
2022-11-04T01:06:25.341Z,10.90
2022-11-04T01:06:47.186Z,11.63
2022-11-04T01:07:08.960Z,10.82
2022-11-04T01:07:31.691Z,10.57
2022-11-04T01:07:53.985Z,11.02
2022-11-04T01:08:16.122Z,11.07
2022-11-04T01:08:37.896Z,11.07
2022-11-04T01:09:01.554Z,10.68
2022-11-04T01:09:23.350Z,10.60
2022-11-04T01:09:45.162Z,11.55
2022-11-04T01:10:07.530Z,10.85
2022-11-04T01:10:29.269Z,11.05
2022-11-04T01:10:51.084Z,11.70
2022-11-04T01:11:13.689Z,10.88
2022-11-04T01:11:35.980Z,11.40
2022-11-04T01:11:58.158Z,11.48
2022-11-04T01:12:20.378Z,11.15
2022-11-04T01:12:42.134Z,11.23
2022-11-04T01:13:04.272Z,11.00
2022-11-04T01:13:26.380Z,11.15
2022-11-04T01:13:51.426Z,11.20
2022-11-04T01:14:13.974Z,11.05
2022-11-04T01:14:36.113Z,11.48
2022-11-04T01:14:57.893Z,11.50
2022-11-04T01:15:20.270Z,11.23
2022-11-04T01:15:42.398Z,11.20
2022-11-04T01:16:06.963Z,11.75
2022-11-04T01:16:29.581Z,11.55
2022-11-04T01:16:51.940Z,11.15
2022-11-04T01:17:13.719Z,10.73
2022-11-04T01:17:35.495Z,10.85
2022-11-04T01:17:57.218Z,10.95
2022-11-04T01:18:19.432Z,11.68
2022-11-04T01:18:41.346Z,11.35
2022-11-04T01:19:03.974Z,10.77
2022-11-04T01:19:25.778Z,11.00
2022-11-04T01:19:47.533Z,11.38
2022-11-04T01:20:09.766Z,11.65
2022-11-04T01:20:33.125Z,10.88
2022-11-04T01:20:55.006Z,10.43
2022-11-04T01:21:17.684Z,10.93
2022-11-04T01:21:39.423Z,11.20
2022-11-04T01:22:01.511Z,11.45
2022-11-04T01:22:23.266Z,10.98
2022-11-04T01:22:45.534Z,10.93
2022-11-04T01:23:07.358Z,10.73
2022-11-04T01:23:29.411Z,10.32
2022-11-04T01:23:51.312Z,10.38
2022-11-04T01:24:13.010Z,11.00
2022-11-04T01:24:35.180Z,11.63
2022-11-04T01:24:57.346Z,10.85
2022-11-04T01:25:19.461Z,11.43
2022-11-04T01:25:41.512Z,10.95
2022-11-04T01:26:11.648Z,10.52
2022-11-04T01:26:33.431Z,11.05
2022-11-04T01:26:55.226Z,10.82
2022-11-04T01:27:16.947Z,11.00
2022-11-04T01:27:38.765Z,10.38
2022-11-04T01:28:00.496Z,10.88
2022-11-04T01:28:22.448Z,10.30
2022-11-04T01:28:45.776Z,10.45
2022-11-04T01:29:07.561Z,10.75
2022-11-04T01:29:29.303Z,10.77
2022-11-04T01:29:51.023Z,10.32
2022-11-04T01:30:13.330Z,10.93
2022-11-04T01:30:37.840Z,10.68
2022-11-04T01:30:59.700Z,10.35
2022-11-04T01:31:27.082Z,10.23
2022-11-04T01:31:48.818Z,10.60
2022-11-04T01:32:10.578Z,10.60
2022-11-04T01:32:32.345Z,10.30
2022-11-04T01:32:54.476Z,10.35
2022-11-04T01:33:16.301Z,10.10
2022-11-04T01:33:38.930Z,10.38
2022-11-04T01:34:01.094Z,10.05
2022-11-04T01:34:22.857Z,10.70
2022-11-04T01:34:46.145Z,10.40
2022-11-04T01:35:08.898Z,10.93
2022-11-04T01:35:31.766Z,10.80
2022-11-04T01:35:53.910Z,10.80
2022-11-04T01:36:16.229Z,10.40
2022-11-04T01:36:38.118Z,10.52
2022-11-04T01:37:00.249Z,10.57
2022-11-04T01:37:21.951Z,10.50
2022-11-04T01:37:44.160Z,10.18
2022-11-04T01:38:06.276Z,10.27
2022-11-04T01:38:29.136Z,10.20
2022-11-04T01:38:51.413Z,10.40
2022-11-04T01:39:13.531Z,10.57
2022-11-04T01:39:35.822Z,10.43
2022-11-04T01:39:57.579Z,10.45
2022-11-04T01:40:19.696Z,10.40
2022-11-04T01:40:41.913Z,10.18
2022-11-04T01:41:04.311Z,9.80
2022-11-04T01:41:28.310Z,10.32
2022-11-04T01:41:50.079Z,10.75
2022-11-04T01:42:14.753Z,10.40
2022-11-04T01:42:36.485Z,10.35
2022-11-04T01:42:58.644Z,10.43
2022-11-04T01:43:22.232Z,11.00
2022-11-04T01:43:49.635Z,10.75
2022-11-04T01:44:42.480Z,10.77
2022-11-04T01:45:04.507Z,10.80
2022-11-04T01:45:26.258Z,10.48
2022-11-04T01:45:54.247Z,9.80
2022-11-04T01:46:28.559Z,10.23
2022-11-04T01:46:53.989Z,10.57
2022-11-04T01:47:38.984Z,10.45
2022-11-04T01:48:05.739Z,10.43
2022-11-04T01:48:30.848Z,10.18
2022-11-04T01:48:53.475Z,10.70
2022-11-04T01:49:37.906Z,9.85
2022-11-04T01:50:13.361Z,9.95
2022-11-04T01:50:35.699Z,10.23
2022-11-04T01:50:58.127Z,10.25
2022-11-04T01:51:20.689Z,9.98
2022-11-04T01:51:42.950Z,10.23
2022-11-04T01:52:10.977Z,9.90
2022-11-04T01:52:50.152Z,9.88
2022-11-04T01:53:23.896Z,10.38
2022-11-04T01:53:46.273Z,9.68
2022-11-04T01:54:10.182Z,9.38
2022-11-04T01:54:32.652Z,9.77
2022-11-04T01:54:56.148Z,10.23
2022-11-04T01:55:20.699Z,9.60
2022-11-04T01:55:55.818Z,9.38
2022-11-04T01:56:20.391Z,9.65
2022-11-04T01:56:44.326Z,9.60
2022-11-04T01:57:09.652Z,10.52
2022-11-04T01:57:35.382Z,9.57
2022-11-04T01:58:01.159Z,9.60
2022-11-04T01:58:25.518Z,9.32
2022-11-04T01:58:51.336Z,10.00
2022-11-04T01:59:20.757Z,10.18
2022-11-04T01:59:42.797Z,9.82
2022-11-04T02:00:06.371Z,9.77
2022-11-04T02:00:28.254Z,10.20
2022-11-04T02:00:50.457Z,10.10
2022-11-04T02:01:13.425Z,9.50
2022-11-04T02:01:36.384Z,10.13
2022-11-04T02:01:58.793Z,10.07
2022-11-04T02:02:21.075Z,9.85
2022-11-04T02:02:54.678Z,9.68
2022-11-04T02:03:20.050Z,10.18
2022-11-04T02:03:50.739Z,9.55
2022-11-04T02:04:25.926Z,9.27
2022-11-04T02:04:47.793Z,9.45
2022-11-04T02:05:09.704Z,9.57
2022-11-04T02:05:32.390Z,9.80
2022-11-04T02:05:54.797Z,9.68
2022-11-04T02:06:19.169Z,10.02
2022-11-04T02:06:40.937Z,9.20
2022-11-04T02:07:06.076Z,9.15
2022-11-04T02:07:28.820Z,8.90
2022-11-04T02:07:52.308Z,8.77
2022-11-04T02:08:15.904Z,9.27
2022-11-04T02:08:39.266Z,9.15
2022-11-04T02:09:01.536Z,8.48
2022-11-04T02:09:25.408Z,8.90
2022-11-04T02:09:47.213Z,9.27
2022-11-04T02:10:09.793Z,8.93
2022-11-04T02:10:32.381Z,9.52
2022-11-04T02:11:02.620Z,9.02
2022-11-04T02:11:42.838Z,9.45
2022-11-04T02:12:23.743Z,9.63
2022-11-04T02:12:51.273Z,9.00
2022-11-04T02:13:13.078Z,9.68
2022-11-04T02:13:36.470Z,9.77
2022-11-04T02:13:58.687Z,9.20
2022-11-04T02:14:20.457Z,9.10
2022-11-04T02:14:43.389Z,9.57
2022-11-04T02:15:05.630Z,9.40
2022-11-04T02:15:47.258Z,9.00
2022-11-04T02:16:12.122Z,9.07
2022-11-04T02:16:42.899Z,8.88
2022-11-04T02:17:19.720Z,9.07
2022-11-04T02:17:47.189Z,9.63
2022-11-04T02:18:24.496Z,9.40
2022-11-04T02:18:55.308Z,8.82
2022-11-04T02:19:59.463Z,9.27
2022-11-04T02:20:21.958Z,9.02
2022-11-04T02:21:22.128Z,8.77
2022-11-04T02:21:44.335Z,9.35
2022-11-04T02:22:42.062Z,9.68
2022-11-04T02:23:16.899Z,8.80
2022-11-04T02:23:59.313Z,9.20
2022-11-04T02:24:23.609Z,8.73
2022-11-04T02:25:05.106Z,8.32
2022-11-04T02:26:00.543Z,8.93
2022-11-04T02:26:58.245Z,9.43
2022-11-04T02:27:31.424Z,8.50
2022-11-04T02:28:14.390Z,8.73
2022-11-04T02:28:39.299Z,8.98
2022-11-04T02:29:04.416Z,9.27
2022-11-04T02:29:29.468Z,8.98
2022-11-04T02:29:56.733Z,9.43
2022-11-04T02:30:19.954Z,9.25
2022-11-04T02:30:50.518Z,9.18
2022-11-04T02:31:15.618Z,8.65
2022-11-04T02:31:56.625Z,9.27
2022-11-04T02:33:00.461Z,8.98
2022-11-04T02:33:27.809Z,9.00
2022-11-04T02:34:11.859Z,9.57
2022-11-04T02:34:47.228Z,9.50
2022-11-04T02:35:17.171Z,9.55
2022-11-04T02:35:57.060Z,9.27
2022-11-04T02:36:26.778Z,9.40
2022-11-04T02:37:23.697Z,9.23
2022-11-04T02:38:03.920Z,9.45
2022-11-04T02:38:28.693Z,9.10
2022-11-04T02:38:53.478Z,8.98
2022-11-04T02:39:32.470Z,9.15
2022-11-04T02:40:19.454Z,9.38
2022-11-04T02:41:03.063Z,9.63
2022-11-04T02:41:24.745Z,9.15
2022-11-04T02:41:49.757Z,9.43
2022-11-04T02:42:29.303Z,9.32
2022-11-04T02:43:01.259Z,9.40
2022-11-04T02:43:28.930Z,8.80
2022-11-04T02:43:53.525Z,8.90
2022-11-04T02:44:15.603Z,9.40
2022-11-04T02:44:48.490Z,9.45
2022-11-04T02:45:16.557Z,9.60
2022-11-04T02:45:45.571Z,9.10
2022-11-04T02:46:13.004Z,9.93
2022-11-04T02:46:37.869Z,9.15
2022-11-04T02:47:09.957Z,8.90
2022-11-04T02:47:32.941Z,9.07
2022-11-04T02:47:58.271Z,9.20
2022-11-04T02:48:20.443Z,9.40
2022-11-04T02:48:46.693Z,9.45
2022-11-04T02:49:15.508Z,9.50
2022-11-04T02:49:44.068Z,10.10
2022-11-04T02:50:16.921Z,9.23
2022-11-04T02:50:47.496Z,9.63
2022-11-04T02:51:18.111Z,9.77
2022-11-04T02:51:42.041Z,9.45
2022-11-04T02:52:25.216Z,9.55
2022-11-04T02:53:10.985Z,9.30
2022-11-04T02:53:41.355Z,9.50
2022-11-04T02:54:06.787Z,9.43
2022-11-04T02:54:36.120Z,10.23
2022-11-04T02:55:01.206Z,10.10
2022-11-04T02:55:28.183Z,9.60
2022-11-04T02:55:57.372Z,9.70
2022-11-04T02:56:22.306Z,9.65
2022-11-04T02:56:49.879Z,9.95
2022-11-04T02:57:14.476Z,9.38
2022-11-04T02:57:39.635Z,9.80
2022-11-04T02:58:03.849Z,9.98
2022-11-04T02:58:34.612Z,10.23
2022-11-04T02:59:01.039Z,9.63
2022-11-04T02:59:34.493Z,9.77
2022-11-04T03:00:02.039Z,9.65
2022-11-04T03:00:24.575Z,9.98
2022-11-04T03:00:47.912Z,9.95
2022-11-04T03:01:13.558Z,9.82
2022-11-04T03:01:37.962Z,10.27
2022-11-04T03:02:02.271Z,9.50
2022-11-04T03:02:27.457Z,9.05
2022-11-04T03:02:55.861Z,9.30
2022-11-04T03:03:21.065Z,10.13
2022-11-04T03:03:46.502Z,10.15
2022-11-04T03:04:21.141Z,10.00
2022-11-04T03:04:46.308Z,9.73
2022-11-04T03:05:10.446Z,10.35
2022-11-04T03:05:36.249Z,10.43
2022-11-04T03:06:00.914Z,9.85
2022-11-04T03:06:25.509Z,10.00
2022-11-04T03:06:50.756Z,9.30
2022-11-04T03:07:15.796Z,10.30
2022-11-04T03:07:42.000Z,10.35
2022-11-04T03:08:16.258Z,9.82
2022-11-04T03:08:48.740Z,9.90
2022-11-04T03:09:13.142Z,9.70
2022-11-04T03:09:36.898Z,10.02
2022-11-04T03:10:02.721Z,10.10
2022-11-04T03:10:27.682Z,10.35
2022-11-04T03:10:53.772Z,10.05
2022-11-04T03:11:18.687Z,10.00
2022-11-04T03:11:43.414Z,10.25
2022-11-04T03:12:14.863Z,10.27
2022-11-04T03:12:40.419Z,10.23
2022-11-04T03:13:05.113Z,10.38
2022-11-04T03:13:33.785Z,10.45
2022-11-04T03:14:16.249Z,10.75
2022-11-04T03:14:40.162Z,10.18
2022-11-04T03:15:04.679Z,10.57
2022-11-04T03:15:32.074Z,10.80
2022-11-04T03:16:00.057Z,11.25
2022-11-04T03:16:36.993Z,10.88
2022-11-04T03:17:02.190Z,10.23
2022-11-04T03:17:29.329Z,11.60
2022-11-04T03:17:58.187Z,11.23
2022-11-04T03:18:27.373Z,10.90
2022-11-04T03:19:01.678Z,10.90
2022-11-04T03:19:41.884Z,10.52
2022-11-04T03:20:06.479Z,10.45
2022-11-04T03:20:31.604Z,10.38
2022-11-04T03:20:54.602Z,11.13
2022-11-04T03:21:19.143Z,11.18
2022-11-04T03:21:54.211Z,11.23
2022-11-04T03:22:22.452Z,11.60
2022-11-04T03:22:44.679Z,11.13
2022-11-04T03:23:06.757Z,10.93
2022-11-04T03:23:28.873Z,10.77
2022-11-04T03:23:50.958Z,11.40
2022-11-04T03:24:13.124Z,11.40
2022-11-04T03:24:35.250Z,11.05
2022-11-04T03:24:57.861Z,11.23
2022-11-04T03:25:20.496Z,11.43
2022-11-04T03:25:45.833Z,11.18
2022-11-04T03:26:11.279Z,11.38
2022-11-04T03:26:47.019Z,11.35
2022-11-04T03:27:24.253Z,10.98
2022-11-04T03:27:50.606Z,10.90
2022-11-04T03:28:46.252Z,11.07
2022-11-04T03:29:26.790Z,11.45
2022-11-04T03:29:58.196Z,10.82
2022-11-04T03:30:22.634Z,11.35
2022-11-04T03:30:46.089Z,10.65
2022-11-04T03:31:09.829Z,10.50
2022-11-04T03:31:40.745Z,11.05
2022-11-04T03:32:17.931Z,11.80
2022-11-04T03:32:42.429Z,10.55
2022-11-04T03:33:26.826Z,10.77
2022-11-04T03:33:53.404Z,11.57
2022-11-04T03:34:15.275Z,11.60
2022-11-04T03:34:38.049Z,11.23
2022-11-04T03:35:00.369Z,10.90
2022-11-04T03:35:22.561Z,10.93
2022-11-04T03:35:44.732Z,11.23
2022-11-04T03:36:08.864Z,11.27
2022-11-04T03:36:31.020Z,10.88
2022-11-04T03:36:53.067Z,11.10
2022-11-04T03:37:15.176Z,11.40
2022-11-04T03:37:36.977Z,11.52
2022-11-04T03:37:58.914Z,10.93
2022-11-04T03:38:21.760Z,10.82
2022-11-04T03:38:44.022Z,11.23
2022-11-04T03:39:05.754Z,11.75
2022-11-04T03:39:27.960Z,11.40
2022-11-04T03:39:49.816Z,11.25
2022-11-04T03:40:13.037Z,11.32
2022-11-04T03:40:35.261Z,11.65
2022-11-04T03:40:57.898Z,12.13
2022-11-04T03:41:43.264Z,11.77
2022-11-04T03:42:20.407Z,11.65
2022-11-04T03:42:49.596Z,11.70
2022-11-04T03:43:19.174Z,11.68
2022-11-04T03:43:42.922Z,11.70
2022-11-04T03:44:05.191Z,11.80
2022-11-04T03:44:28.544Z,12.10
2022-11-04T03:44:51.664Z,11.73
2022-11-04T03:45:14.510Z,12.02
2022-11-04T03:45:36.739Z,11.82
2022-11-04T03:45:58.538Z,12.40
2022-11-04T03:46:22.432Z,12.48
2022-11-04T03:46:44.847Z,12.00
2022-11-04T03:47:06.560Z,11.95
2022-11-04T03:47:30.160Z,11.27
2022-11-04T03:47:52.352Z,11.77
2022-11-04T03:48:14.259Z,11.70
2022-11-04T03:48:36.510Z,11.95
2022-11-04T03:49:00.552Z,11.65
2022-11-04T03:49:24.224Z,11.77
2022-11-04T03:49:50.160Z,11.60
2022-11-04T03:50:28.447Z,11.55
2022-11-04T03:50:51.214Z,11.93
2022-11-04T03:51:12.949Z,11.82
2022-11-04T03:51:34.686Z,11.63
2022-11-04T03:51:58.410Z,11.93
2022-11-04T03:52:20.811Z,12.20
2022-11-04T03:52:42.598Z,11.73
2022-11-04T03:53:04.899Z,11.38
2022-11-04T03:53:28.307Z,11.70
2022-11-04T03:53:50.612Z,11.48
2022-11-04T03:54:13.540Z,11.80
2022-11-04T03:54:38.775Z,11.82
2022-11-04T03:55:00.921Z,11.80
2022-11-04T03:55:28.841Z,12.15
2022-11-04T03:56:25.157Z,11.20
2022-11-04T03:57:05.244Z,11.32
2022-11-04T03:57:34.404Z,11.27
2022-11-04T03:57:58.824Z,12.00
2022-11-04T03:58:32.428Z,11.60
2022-11-04T03:59:51.386Z,11.43
2022-11-04T04:00:14.815Z,11.20
2022-11-04T04:00:41.946Z,11.90
2022-11-04T04:01:24.419Z,12.40
2022-11-04T04:01:57.102Z,11.52
2022-11-04T04:02:35.819Z,11.68
2022-11-04T04:03:18.324Z,11.88
2022-11-04T04:03:58.883Z,11.07
2022-11-04T04:04:28.318Z,11.00
2022-11-04T04:04:56.107Z,11.07
2022-11-04T04:05:24.439Z,11.63
2022-11-04T04:05:59.455Z,11.13
2022-11-04T04:06:28.230Z,10.55
2022-11-04T04:06:53.354Z,11.15
2022-11-04T04:07:20.948Z,11.02
2022-11-04T04:07:49.652Z,11.82
2022-11-04T04:08:36.460Z,11.63
2022-11-04T04:09:09.089Z,10.98
2022-11-04T04:09:53.553Z,11.07
2022-11-04T04:10:41.928Z,10.90
2022-11-04T04:11:18.421Z,11.18
2022-11-04T04:11:52.486Z,11.00
2022-11-04T04:12:40.207Z,11.40
2022-11-04T04:13:04.153Z,11.18
2022-11-04T04:13:31.775Z,11.20
2022-11-04T04:14:05.450Z,10.82
2022-11-04T04:14:47.831Z,11.20
2022-11-04T04:15:25.725Z,11.82
2022-11-04T04:16:15.646Z,12.20
2022-11-04T04:16:44.429Z,11.13
2022-11-04T04:17:21.340Z,11.05
2022-11-04T04:18:10.026Z,11.32
2022-11-04T04:18:37.364Z,10.57
2022-11-04T04:19:04.782Z,10.77
2022-11-04T04:19:27.750Z,10.48
2022-11-04T04:20:04.223Z,10.73
2022-11-04T04:20:29.409Z,11.13
2022-11-04T04:20:54.209Z,11.65
2022-11-04T04:21:22.972Z,11.40
2022-11-04T04:22:01.385Z,10.95
2022-11-04T04:22:27.143Z,10.38
2022-11-04T04:22:53.364Z,10.05
2022-11-04T04:23:36.679Z,11.52
2022-11-04T04:24:20.876Z,10.77
2022-11-04T04:25:05.379Z,10.93
2022-11-04T04:25:48.890Z,10.80
2022-11-04T04:26:31.130Z,11.05
2022-11-04T04:27:13.730Z,10.73
2022-11-04T04:27:36.308Z,11.05
2022-11-04T04:27:59.634Z,10.60
2022-11-04T04:28:21.922Z,10.15
2022-11-04T04:28:45.753Z,10.73
2022-11-04T04:29:09.175Z,11.20
2022-11-04T04:29:31.694Z,10.90
2022-11-04T04:29:54.211Z,10.57
2022-11-04T04:30:17.554Z,10.70
2022-11-04T04:30:42.025Z,10.68
2022-11-04T04:31:04.384Z,10.30
2022-11-04T04:31:45.568Z,10.57
2022-11-04T04:32:07.437Z,10.85
2022-11-04T04:32:30.608Z,10.55
2022-11-04T04:33:00.407Z,10.32
2022-11-04T04:33:22.536Z,10.43
2022-11-04T04:33:44.364Z,10.20
2022-11-04T04:34:06.563Z,10.40
2022-11-04T04:34:31.437Z,10.07
2022-11-04T04:35:13.525Z,9.80
2022-11-04T04:35:43.971Z,10.35
2022-11-04T04:36:08.583Z,10.50
2022-11-04T04:36:36.662Z,10.45
2022-11-04T04:37:25.388Z,10.80
2022-11-04T04:37:48.240Z,10.30
2022-11-04T04:38:48.257Z,9.48
2022-11-04T04:39:30.398Z,10.57
2022-11-04T04:40:16.122Z,9.85
2022-11-04T04:41:42.241Z,11.00
2022-11-04T04:42:23.035Z,10.05
2022-11-04T04:43:03.313Z,10.30
2022-11-04T04:43:57.439Z,10.18
2022-11-04T04:44:46.467Z,10.18
2022-11-04T04:45:09.308Z,10.27
2022-11-04T04:45:34.743Z,10.48
2022-11-04T04:45:57.347Z,10.57
2022-11-04T04:46:19.455Z,11.05
2022-11-04T04:46:43.511Z,10.65
2022-11-04T04:47:06.772Z,10.65
2022-11-04T04:47:44.665Z,10.55
2022-11-04T04:48:09.824Z,10.65
2022-11-04T04:48:32.002Z,10.20
2022-11-04T04:48:54.165Z,10.38
2022-11-04T04:49:16.001Z,10.15
2022-11-04T04:49:38.193Z,9.90
2022-11-04T04:50:01.354Z,10.52
2022-11-04T04:50:25.812Z,10.52
2022-11-04T04:50:49.746Z,10.40
2022-11-04T04:51:12.218Z,10.52
2022-11-04T04:51:35.404Z,10.35
2022-11-04T04:51:57.519Z,10.38
2022-11-04T04:52:20.198Z,10.25
2022-11-04T04:52:45.760Z,10.27
2022-11-04T04:53:08.068Z,10.20
2022-11-04T04:53:30.051Z,10.00
2022-11-04T04:53:52.161Z,10.45
2022-11-04T04:54:14.879Z,11.27
2022-11-04T04:54:37.082Z,10.98
2022-11-04T04:54:58.854Z,10.20
2022-11-04T04:55:20.805Z,10.30
2022-11-04T04:55:42.880Z,10.23
2022-11-04T04:56:04.761Z,10.27
2022-11-04T04:56:26.494Z,10.35
2022-11-04T04:56:48.634Z,10.30
2022-11-04T04:57:10.510Z,10.70
2022-11-04T04:57:32.299Z,10.32
2022-11-04T04:57:54.006Z,9.60
2022-11-04T04:58:16.149Z,10.50
2022-11-04T04:58:38.355Z,10.82
2022-11-04T04:59:00.173Z,10.88
2022-11-04T04:59:22.117Z,10.48
2022-11-04T04:59:43.862Z,9.95
2022-11-04T05:00:07.285Z,10.23
2022-11-04T05:00:29.536Z,10.38
2022-11-04T05:00:51.415Z,10.32
2022-11-04T05:01:13.735Z,10.07
2022-11-04T05:01:35.770Z,10.00
2022-11-04T05:01:57.705Z,10.15
2022-11-04T05:02:19.676Z,10.18
2022-11-04T05:02:42.000Z,10.60
2022-11-04T05:03:04.174Z,10.07
2022-11-04T05:03:25.970Z,10.25
2022-11-04T05:03:48.078Z,10.82
2022-11-04T05:04:10.190Z,10.60
2022-11-04T05:04:32.320Z,10.25
2022-11-04T05:04:56.218Z,9.88
2022-11-04T05:05:19.054Z,10.23
2022-11-04T05:05:41.164Z,9.90
2022-11-04T05:06:02.904Z,10.65
2022-11-04T05:06:24.629Z,10.23
2022-11-04T05:06:46.755Z,10.40
2022-11-04T05:07:09.997Z,9.82
2022-11-04T05:07:31.746Z,9.73
2022-11-04T05:07:53.518Z,10.07
2022-11-04T05:08:15.648Z,10.18
2022-11-04T05:08:37.407Z,10.23
2022-11-04T05:08:59.133Z,10.30
2022-11-04T05:09:21.081Z,10.50
2022-11-04T05:09:43.294Z,10.60
2022-11-04T05:10:06.055Z,10.40
2022-11-04T05:10:27.834Z,9.98
2022-11-04T05:10:49.937Z,10.35
2022-11-04T05:11:12.169Z,10.15
2022-11-04T05:11:34.393Z,10.52
2022-11-04T05:11:56.158Z,10.85
2022-11-04T05:12:18.327Z,10.95
2022-11-04T05:12:59.436Z,10.27
2022-11-04T05:13:26.871Z,10.57
2022-11-04T05:13:48.558Z,10.65
2022-11-04T05:14:10.405Z,10.70
2022-11-04T05:14:32.541Z,10.55
2022-11-04T05:14:54.640Z,10.52
2022-11-04T05:15:17.052Z,10.95
2022-11-04T05:15:39.159Z,10.50
2022-11-04T05:16:08.751Z,10.82
2022-11-04T05:16:30.567Z,10.57
2022-11-04T05:16:52.359Z,10.65
2022-11-04T05:17:15.699Z,10.35
2022-11-04T05:17:37.449Z,10.70
2022-11-04T05:18:00.615Z,10.75
2022-11-04T05:18:22.986Z,11.50
2022-11-04T05:18:45.127Z,10.20
2022-11-04T05:19:06.867Z,10.18
2022-11-04T05:19:28.720Z,10.43
2022-11-04T05:19:50.838Z,10.15
2022-11-04T05:20:13.081Z,10.30
2022-11-04T05:20:38.408Z,10.30
2022-11-04T05:21:03.525Z,10.00
2022-11-04T05:21:25.822Z,10.18
2022-11-04T05:21:48.041Z,10.50
2022-11-04T05:22:10.214Z,10.82
2022-11-04T05:22:31.946Z,11.07
2022-11-04T05:22:54.953Z,10.98
2022-11-04T05:23:17.365Z,10.73
2022-11-04T05:23:39.275Z,10.82
2022-11-04T05:24:01.399Z,10.32
2022-11-04T05:24:23.556Z,10.05
2022-11-04T05:24:45.686Z,10.70
2022-11-04T05:25:07.948Z,10.98
2022-11-04T05:25:29.821Z,11.52
2022-11-04T05:25:51.546Z,10.95
2022-11-04T05:26:15.125Z,10.30
2022-11-04T05:26:36.836Z,10.68
2022-11-04T05:26:58.619Z,11.40
2022-11-04T05:27:20.354Z,11.43
2022-11-04T05:27:42.518Z,10.77
2022-11-04T05:28:04.991Z,10.52
2022-11-04T05:28:27.257Z,10.73
2022-11-04T05:28:49.415Z,11.00
2022-11-04T05:29:12.454Z,10.75
2022-11-04T05:29:34.255Z,10.32
2022-11-04T05:29:55.986Z,10.55
2022-11-04T05:30:17.922Z,10.52
2022-11-04T05:30:40.409Z,10.48
2022-11-04T05:31:06.989Z,10.90
2022-11-04T05:31:30.379Z,10.98
2022-11-04T05:31:52.105Z,11.18
2022-11-04T05:32:13.846Z,10.73
2022-11-04T05:32:35.705Z,10.98
2022-11-04T05:33:01.532Z,10.60
2022-11-04T05:33:26.537Z,11.23
2022-11-04T05:33:48.675Z,10.95
2022-11-04T05:34:12.018Z,10.77
2022-11-04T05:34:33.742Z,11.00
2022-11-04T05:34:55.456Z,11.50
2022-11-04T05:35:17.745Z,10.63
2022-11-04T05:35:39.544Z,11.02
2022-11-04T05:36:13.265Z,10.75
2022-11-04T05:36:35.175Z,11.20
2022-11-04T05:36:57.325Z,11.00
2022-11-04T05:37:19.073Z,11.30
2022-11-04T05:37:41.219Z,11.15
2022-11-04T05:38:03.526Z,10.70
2022-11-04T05:38:25.312Z,10.73
2022-11-04T05:38:51.603Z,10.25
2022-11-04T05:39:14.395Z,10.65
2022-11-04T05:39:36.549Z,11.15
2022-11-04T05:39:58.400Z,11.70
2022-11-04T05:40:20.128Z,11.05
2022-11-04T05:40:41.877Z,10.80
2022-11-04T05:41:04.819Z,10.88
2022-11-04T05:41:27.082Z,10.88
2022-11-04T05:41:49.243Z,10.95
2022-11-04T05:42:11.344Z,11.05
2022-11-04T05:42:33.533Z,11.15
2022-11-04T05:42:58.485Z,10.70
2022-11-04T05:43:20.630Z,10.77
2022-11-04T05:43:42.747Z,10.52
2022-11-04T05:44:04.801Z,11.25